sensor_id;sensor_type;location;lat;lon;timestamp;temperature;humidity
6520;DHT22;3293;51.690;5.982;2022-12-24T00:02:55;10.20;99.90
6520;DHT22;3293;51.690;5.982;2022-12-24T00:07:55;10.20;99.90
6520;DHT22;3293;51.690;5.982;2022-12-24T00:12:55;10.10;99.90
6520;DHT22;3293;51.690;5.982;2022-12-24T00:17:55;10.00;99.90
6520;DHT22;3293;51.690;5.982;2022-12-24T00:22:55;10.00;99.90
6520;DHT22;3293;51.690;5.982;2022-12-24T00:27:55;10.00;99.90
6520;DHT22;3293;51.690;5.982;2022-12-24T00:32:54;9.90;99.90
6520;DHT22;3293;51.690;5.982;2022-12-24T00:37:58;9.90;99.90
6520;DHT22;3293;51.690;5.982;2022-12-24T00:42:58;9.90;99.90
6520;DHT22;3293;51.690;5.982;2022-12-24T00:47:58;9.90;99.90
6520;DHT22;3293;51.690;5.982;2022-12-24T00:52:58;9.90;99.90
6520;DHT22;3293;51.690;5.982;2022-12-24T00:57:58;9.90;99.90
6520;DHT22;3293;51.690;5.982;2022-12-24T01:02:58;9.90;99.90
6520;DHT22;3293;51.690;5.982;2022-12-24T01:07:58;9.90;99.90
6520;DHT22;3293;51.690;5.982;2022-12-24T01:13:01;9.90;99.90
6520;DHT22;3293;51.690;5.982;2022-12-24T01:18:01;9.90;99.90
6520;DHT22;3293;51.690;5.982;2022-12-24T01:23:02;9.90;99.90
6520;DHT22;3293;51.690;5.982;2022-12-24T01:28:02;9.90;99.90
6520;DHT22;3293;51.690;5.982;2022-12-24T01:33:02;9.90;99.90
6520;DHT22;3293;51.690;5.982;2022-12-24T01:38:02;9.80;99.90
6520;DHT22;3293;51.690;5.982;2022-12-24T01:43:02;9.80;99.90
6520;DHT22;3293;51.690;5.982;2022-12-24T01:53:46;9.80;99.90
6520;DHT22;3293;51.690;5.982;2022-12-24T01:58:51;9.80;99.90
6520;DHT22;3293;51.690;5.982;2022-12-24T02:03:52;9.80;99.90
6520;DHT22;3293;51.690;5.982;2022-12-24T02:08:52;9.80;99.90
6520;DHT22;3293;51.690;5.982;2022-12-24T02:13:56;9.80;99.90
6520;DHT22;3293;51.690;5.982;2022-12-24T02:24:58;9.60;99.90
6520;DHT22;3293;51.690;5.982;2022-12-24T02:30:21;9.50;99.90
6520;DHT22;3293;51.690;5.982;2022-12-24T02:35:38;9.40;99.90
6520;DHT22;3293;51.690;5.982;2022-12-24T02:40:45;9.30;99.90
6520;DHT22;3293;51.690;5.982;2022-12-24T02:45:51;9.30;99.90
6520;DHT22;3293;51.690;5.982;2022-12-24T02:51:02;9.30;99.90
6520;DHT22;3293;51.690;5.982;2022-12-24T03:11:47;9.40;99.90
6520;DHT22;3293;51.690;5.982;2022-12-24T03:16:52;9.50;99.90
6520;DHT22;3293;51.690;5.982;2022-12-24T03:21:54;9.60;99.90
6520;DHT22;3293;51.690;5.982;2022-12-24T03:26:55;9.70;99.90
6520;DHT22;3293;51.690;5.982;2022-12-24T03:32:00;9.70;99.90
6520;DHT22;3293;51.690;5.982;2022-12-24T03:37:00;9.60;99.90
6520;DHT22;3293;51.690;5.982;2022-12-24T03:42:00;9.40;99.90
6520;DHT22;3293;51.690;5.982;2022-12-24T03:47:00;9.30;99.90
6520;DHT22;3293;51.690;5.982;2022-12-24T03:52:00;9.20;99.90
6520;DHT22;3293;51.690;5.982;2022-12-24T03:57:00;9.20;99.90
6520;DHT22;3293;51.690;5.982;2022-12-24T04:02:00;9.30;99.90
6520;DHT22;3293;51.690;5.982;2022-12-24T04:07:00;9.30;99.90
6520;DHT22;3293;51.690;5.982;2022-12-24T04:12:00;9.40;99.90
6520;DHT22;3293;51.690;5.982;2022-12-24T04:16:59;9.50;99.90
6520;DHT22;3293;51.690;5.982;2022-12-24T04:21:59;9.60;99.90
6520;DHT22;3293;51.690;5.982;2022-12-24T04:26:59;9.60;99.90
6520;DHT22;3293;51.690;5.982;2022-12-24T04:31:59;9.60;99.90
6520;DHT22;3293;51.690;5.982;2022-12-24T04:36:59;9.60;99.90
6520;DHT22;3293;51.690;5.982;2022-12-24T04:41:59;9.70;99.90
6520;DHT22;3293;51.690;5.982;2022-12-24T04:46:59;9.70;99.90
6520;DHT22;3293;51.690;5.982;2022-12-24T04:51:59;9.80;99.90
6520;DHT22;3293;51.690;5.982;2022-12-24T04:56:59;9.80;99.90
6520;DHT22;3293;51.690;5.982;2022-12-24T05:01:59;9.80;99.90
6520;DHT22;3293;51.690;5.982;2022-12-24T05:06:59;9.80;99.90
6520;DHT22;3293;51.690;5.982;2022-12-24T05:11:59;9.80;99.90
6520;DHT22;3293;51.690;5.982;2022-12-24T05:16:58;9.90;99.90
6520;DHT22;3293;51.690;5.982;2022-12-24T05:21:58;9.90;99.90
6520;DHT22;3293;51.690;5.982;2022-12-24T05:27:17;9.90;99.90
6520;DHT22;3293;51.690;5.982;2022-12-24T05:32:17;9.90;99.90
6520;DHT22;3293;51.690;5.982;2022-12-24T05:37:17;9.80;99.90
6520;DHT22;3293;51.690;5.982;2022-12-24T05:42:17;9.80;99.90
6520;DHT22;3293;51.690;5.982;2022-12-24T05:47:16;9.90;99.90
6520;DHT22;3293;51.690;5.982;2022-12-24T05:52:16;9.90;99.90
6520;DHT22;3293;51.690;5.982;2022-12-24T05:57:16;9.90;99.90
6520;DHT22;3293;51.690;5.982;2022-12-24T06:02:16;9.90;99.90
6520;DHT22;3293;51.690;5.982;2022-12-24T06:07:16;9.80;99.90
6520;DHT22;3293;51.690;5.982;2022-12-24T06:12:16;9.70;99.90
6520;DHT22;3293;51.690;5.982;2022-12-24T06:17:16;9.70;99.90
6520;DHT22;3293;51.690;5.982;2022-12-24T06:22:16;9.70;99.90
6520;DHT22;3293;51.690;5.982;2022-12-24T06:27:16;9.70;99.90
6520;DHT22;3293;51.690;5.982;2022-12-24T06:32:16;9.80;99.90
6520;DHT22;3293;51.690;5.982;2022-12-24T06:37:16;9.80;99.90
6520;DHT22;3293;51.690;5.982;2022-12-24T06:42:18;9.80;99.90
6520;DHT22;3293;51.690;5.982;2022-12-24T06:47:18;9.90;99.90
6520;DHT22;3293;51.690;5.982;2022-12-24T06:52:18;9.80;99.90
6520;DHT22;3293;51.690;5.982;2022-12-24T06:57:18;9.70;99.90
6520;DHT22;3293;51.690;5.982;2022-12-24T07:02:18;9.70;99.90
6520;DHT22;3293;51.690;5.982;2022-12-24T07:07:18;9.60;99.90
6520;DHT22;3293;51.690;5.982;2022-12-24T07:12:18;9.50;99.90
6520;DHT22;3293;51.690;5.982;2022-12-24T07:17:18;9.40;99.90
6520;DHT22;3293;51.690;5.982;2022-12-24T07:22:18;9.40;99.90
6520;DHT22;3293;51.690;5.982;2022-12-24T07:27:18;9.40;99.90
6520;DHT22;3293;51.690;5.982;2022-12-24T07:32:18;9.50;99.90
6520;DHT22;3293;51.690;5.982;2022-12-24T07:37:19;9.60;99.90
6520;DHT22;3293;51.690;5.982;2022-12-24T07:42:19;9.60;99.90
6520;DHT22;3293;51.690;5.982;2022-12-24T07:47:19;9.70;99.90
6520;DHT22;3293;51.690;5.982;2022-12-24T07:52:19;9.70;99.90
6520;DHT22;3293;51.690;5.982;2022-12-24T07:57:19;9.70;99.90
6520;DHT22;3293;51.690;5.982;2022-12-24T08:02:19;9.70;99.90
6520;DHT22;3293;51.690;5.982;2022-12-24T08:07:19;9.70;99.90
6520;DHT22;3293;51.690;5.982;2022-12-24T08:12:19;9.70;99.90
6520;DHT22;3293;51.690;5.982;2022-12-24T08:17:19;9.70;99.90
6520;DHT22;3293;51.690;5.982;2022-12-24T08:22:19;9.70;99.90
6520;DHT22;3293;51.690;5.982;2022-12-24T08:27:19;9.70;99.90
6520;DHT22;3293;51.690;5.982;2022-12-24T08:32:19;9.70;99.90
6520;DHT22;3293;51.690;5.982;2022-12-24T08:37:19;9.70;99.90
6520;DHT22;3293;51.690;5.982;2022-12-24T08:42:19;9.70;99.90
6520;DHT22;3293;51.690;5.982;2022-12-24T08:47:19;9.70;99.90
6520;DHT22;3293;51.690;5.982;2022-12-24T08:52:19;9.70;99.90
6520;DHT22;3293;51.690;5.982;2022-12-24T08:57:22;9.80;99.90
6520;DHT22;3293;51.690;5.982;2022-12-24T09:02:22;9.80;99.90
6520;DHT22;3293;51.690;5.982;2022-12-24T09:07:22;9.90;99.90
6520;DHT22;3293;51.690;5.982;2022-12-24T09:12:25;9.90;99.90
6520;DHT22;3293;51.690;5.982;2022-12-24T09:17:25;10.00;99.90
6520;DHT22;3293;51.690;5.982;2022-12-24T09:22:26;10.10;99.90
6520;DHT22;3293;51.690;5.982;2022-12-24T09:27:26;10.10;99.90
6520;DHT22;3293;51.690;5.982;2022-12-24T09:32:29;10.20;99.90
6520;DHT22;3293;51.690;5.982;2022-12-24T09:37:31;10.30;99.90
6520;DHT22;3293;51.690;5.982;2022-12-24T09:42:50;10.20;99.90
6520;DHT22;3293;51.690;5.982;2022-12-24T09:47:54;10.20;99.90
6520;DHT22;3293;51.690;5.982;2022-12-24T09:52:57;10.20;99.90
6520;DHT22;3293;51.690;5.982;2022-12-24T09:58:01;10.10;99.90
6520;DHT22;3293;51.690;5.982;2022-12-24T10:03:23;10.10;99.90
6520;DHT22;3293;51.690;5.982;2022-12-24T10:24:30;11.10;99.90
6520;DHT22;3293;51.690;5.982;2022-12-24T10:29:39;11.20;99.90
6520;DHT22;3293;51.690;5.982;2022-12-24T10:34:59;11.20;99.90
6520;DHT22;3293;51.690;5.982;2022-12-24T10:40:05;11.10;99.90
6520;DHT22;3293;51.690;5.982;2022-12-24T10:45:06;11.10;99.90
6520;DHT22;3293;51.690;5.982;2022-12-24T10:50:17;11.00;99.90
6520;DHT22;3293;51.690;5.982;2022-12-24T11:00:19;11.00;99.90
6520;DHT22;3293;51.690;5.982;2022-12-24T11:05:38;10.90;99.90
6520;DHT22;3293;51.690;5.982;2022-12-24T11:10:54;11.00;99.90
6520;DHT22;3293;51.690;5.982;2022-12-24T11:16:07;11.30;99.90
6520;DHT22;3293;51.690;5.982;2022-12-24T11:21:09;11.50;99.90
6520;DHT22;3293;51.690;5.982;2022-12-24T11:26:09;11.50;99.90
6520;DHT22;3293;51.690;5.982;2022-12-24T11:31:26;11.60;99.90
6520;DHT22;3293;51.690;5.982;2022-12-24T11:36:29;11.80;99.90
6520;DHT22;3293;51.690;5.982;2022-12-24T11:41:35;11.80;99.90
6520;DHT22;3293;51.690;5.982;2022-12-24T11:46:41;11.80;99.90
6520;DHT22;3293;51.690;5.982;2022-12-24T11:57:14;11.80;99.90
6520;DHT22;3293;51.690;5.982;2022-12-24T12:02:33;11.90;99.90
6520;DHT22;3293;51.690;5.982;2022-12-24T12:07:37;11.90;99.90
6520;DHT22;3293;51.690;5.982;2022-12-24T12:12:44;11.90;99.90
6520;DHT22;3293;51.690;5.982;2022-12-24T12:18:15;11.70;99.90
6520;DHT22;3293;51.690;5.982;2022-12-24T12:23:46;11.40;99.90
6520;DHT22;3293;51.690;5.982;2022-12-24T12:39:33;11.00;99.90
6520;DHT22;3293;51.690;5.982;2022-12-24T12:55:38;11.50;99.90
6520;DHT22;3293;51.690;5.982;2022-12-24T13:00:42;11.60;99.90
6520;DHT22;3293;51.690;5.982;2022-12-24T13:16:38;11.50;99.90
6520;DHT22;3293;51.690;5.982;2022-12-24T13:21:45;11.60;99.90
6520;DHT22;3293;51.690;5.982;2022-12-24T13:42:48;11.20;99.90
6520;DHT22;3293;51.690;5.982;2022-12-24T13:47:49;11.20;99.90
6520;DHT22;3293;51.690;5.982;2022-12-24T13:52:50;11.20;99.90
6520;DHT22;3293;51.690;5.982;2022-12-24T13:58:02;11.20;99.90
6520;DHT22;3293;51.690;5.982;2022-12-24T14:18:49;10.70;99.90
6520;DHT22;3293;51.690;5.982;2022-12-24T14:24:04;10.60;99.90
6520;DHT22;3293;51.690;5.982;2022-12-24T14:29:21;10.40;99.90
6520;DHT22;3293;51.690;5.982;2022-12-24T14:34:24;10.30;99.90
6520;DHT22;3293;51.690;5.982;2022-12-24T14:39:35;10.20;99.90
6520;DHT22;3293;51.690;5.982;2022-12-24T14:44:55;10.10;99.90
6520;DHT22;3293;51.690;5.982;2022-12-24T14:50:20;10.00;99.90
6520;DHT22;3293;51.690;5.982;2022-12-24T14:55:44;9.80;99.90
6520;DHT22;3293;51.690;5.982;2022-12-24T15:00:44;9.60;99.90
6520;DHT22;3293;51.690;5.982;2022-12-24T15:05:49;9.40;99.90
6520;DHT22;3293;51.690;5.982;2022-12-24T15:10:52;9.20;99.90
6520;DHT22;3293;51.690;5.982;2022-12-24T15:15:54;9.10;99.90
6520;DHT22;3293;51.690;5.982;2022-12-24T15:21:03;8.90;99.90
6520;DHT22;3293;51.690;5.982;2022-12-24T15:31:18;8.60;99.90
6520;DHT22;3293;51.690;5.982;2022-12-24T15:36:34;8.50;99.90
6520;DHT22;3293;51.690;5.982;2022-12-24T15:41:40;8.30;99.90
6520;DHT22;3293;51.690;5.982;2022-12-24T15:47:05;8.20;99.90
6520;DHT22;3293;51.690;5.982;2022-12-24T15:52:11;8.00;99.90
6520;DHT22;3293;51.690;5.982;2022-12-24T15:57:29;8.00;99.90
6520;DHT22;3293;51.690;5.982;2022-12-24T16:02:38;7.80;99.90
6520;DHT22;3293;51.690;5.982;2022-12-24T16:07:38;7.70;99.90
6520;DHT22;3293;51.690;5.982;2022-12-24T16:13:02;7.60;99.90
6520;DHT22;3293;51.690;5.982;2022-12-24T16:18:02;7.50;99.90
6520;DHT22;3293;51.690;5.982;2022-12-24T16:23:13;7.50;99.90
6520;DHT22;3293;51.690;5.982;2022-12-24T16:28:17;7.50;99.90
6520;DHT22;3293;51.690;5.982;2022-12-24T16:33:20;7.50;99.90
6520;DHT22;3293;51.690;5.982;2022-12-24T16:38:24;7.50;99.90
6520;DHT22;3293;51.690;5.982;2022-12-24T16:43:46;7.50;99.90
6520;DHT22;3293;51.690;5.982;2022-12-24T16:48:49;7.50;99.90
6520;DHT22;3293;51.690;5.982;2022-12-24T16:53:49;7.40;99.90
6520;DHT22;3293;51.690;5.982;2022-12-24T16:58:49;7.40;99.90
6520;DHT22;3293;51.690;5.982;2022-12-24T17:03:49;7.30;99.90
6520;DHT22;3293;51.690;5.982;2022-12-24T17:08:49;7.20;99.90
6520;DHT22;3293;51.690;5.982;2022-12-24T17:13:49;7.20;99.90
6520;DHT22;3293;51.690;5.982;2022-12-24T17:18:49;7.20;99.90
6520;DHT22;3293;51.690;5.982;2022-12-24T17:23:50;7.30;99.90
6520;DHT22;3293;51.690;5.982;2022-12-24T17:28:55;7.20;99.90
6520;DHT22;3293;51.690;5.982;2022-12-24T17:33:55;7.30;99.90
6520;DHT22;3293;51.690;5.982;2022-12-24T17:38:55;7.20;99.90
6520;DHT22;3293;51.690;5.982;2022-12-24T17:43:55;7.20;99.90
6520;DHT22;3293;51.690;5.982;2022-12-24T17:48:55;7.10;99.90
6520;DHT22;3293;51.690;5.982;2022-12-24T17:53:55;7.20;99.90
6520;DHT22;3293;51.690;5.982;2022-12-24T17:58:55;7.20;99.90
6520;DHT22;3293;51.690;5.982;2022-12-24T18:03:58;7.20;99.90
6520;DHT22;3293;51.690;5.982;2022-12-24T18:08:58;7.20;99.90
6520;DHT22;3293;51.690;5.982;2022-12-24T18:13:59;7.10;99.90
6520;DHT22;3293;51.690;5.982;2022-12-24T18:19:00;7.00;99.90
6520;DHT22;3293;51.690;5.982;2022-12-24T18:24:01;7.00;99.90
6520;DHT22;3293;51.690;5.982;2022-12-24T18:29:02;7.00;99.90
6520;DHT22;3293;51.690;5.982;2022-12-24T18:34:07;7.00;99.90
6520;DHT22;3293;51.690;5.982;2022-12-24T18:39:08;7.00;99.90
6520;DHT22;3293;51.690;5.982;2022-12-24T18:44:08;7.10;99.90
6520;DHT22;3293;51.690;5.982;2022-12-24T18:49:10;7.10;99.90
6520;DHT22;3293;51.690;5.982;2022-12-24T18:54:09;7.10;99.90
6520;DHT22;3293;51.690;5.982;2022-12-24T18:59:09;7.10;99.90
6520;DHT22;3293;51.690;5.982;2022-12-24T19:04:09;7.10;99.90
6520;DHT22;3293;51.690;5.982;2022-12-24T19:09:10;7.10;99.90
6520;DHT22;3293;51.690;5.982;2022-12-24T19:14:11;7.00;99.90
6520;DHT22;3293;51.690;5.982;2022-12-24T19:19:12;7.00;99.90
6520;DHT22;3293;51.690;5.982;2022-12-24T19:24:12;6.90;99.90
6520;DHT22;3293;51.690;5.982;2022-12-24T19:29:13;6.90;99.90
6520;DHT22;3293;51.690;5.982;2022-12-24T19:34:13;6.80;99.90
6520;DHT22;3293;51.690;5.982;2022-12-24T19:39:13;6.80;99.90
6520;DHT22;3293;51.690;5.982;2022-12-24T19:44:13;6.80;99.90
6520;DHT22;3293;51.690;5.982;2022-12-24T19:49:13;6.80;99.90
6520;DHT22;3293;51.690;5.982;2022-12-24T19:54:13;6.90;99.90
6520;DHT22;3293;51.690;5.982;2022-12-24T19:59:13;6.90;99.90
6520;DHT22;3293;51.690;5.982;2022-12-24T20:04:13;6.90;99.90
6520;DHT22;3293;51.690;5.982;2022-12-24T20:09:17;7.00;99.90
6520;DHT22;3293;51.690;5.982;2022-12-24T20:14:16;7.10;99.90
6520;DHT22;3293;51.690;5.982;2022-12-24T20:19:16;7.10;99.90
6520;DHT22;3293;51.690;5.982;2022-12-24T20:24:16;7.20;99.90
6520;DHT22;3293;51.690;5.982;2022-12-24T20:29:16;7.40;99.90
6520;DHT22;3293;51.690;5.982;2022-12-24T20:34:16;7.50;99.90
6520;DHT22;3293;51.690;5.982;2022-12-24T20:39:17;7.60;99.90
6520;DHT22;3293;51.690;5.982;2022-12-24T20:44:17;7.80;99.90
6520;DHT22;3293;51.690;5.982;2022-12-24T20:49:16;7.90;99.90
6520;DHT22;3293;51.690;5.982;2022-12-24T20:54:16;7.90;99.90
6520;DHT22;3293;51.690;5.982;2022-12-24T20:59:17;7.90;99.90
6520;DHT22;3293;51.690;5.982;2022-12-24T21:04:17;7.80;99.90
6520;DHT22;3293;51.690;5.982;2022-12-24T21:09:17;7.80;99.90
6520;DHT22;3293;51.690;5.982;2022-12-24T21:14:23;7.80;99.90
6520;DHT22;3293;51.690;5.982;2022-12-24T21:19:24;7.80;99.90
6520;DHT22;3293;51.690;5.982;2022-12-24T21:24:24;7.70;99.90
6520;DHT22;3293;51.690;5.982;2022-12-24T21:29:24;7.70;99.90
6520;DHT22;3293;51.690;5.982;2022-12-24T21:34:24;7.80;99.90
6520;DHT22;3293;51.690;5.982;2022-12-24T21:39:24;7.80;99.90
6520;DHT22;3293;51.690;5.982;2022-12-24T21:44:24;7.80;99.90
6520;DHT22;3293;51.690;5.982;2022-12-24T21:49:24;7.80;99.90
6520;DHT22;3293;51.690;5.982;2022-12-24T21:54:42;7.90;99.90
6520;DHT22;3293;51.690;5.982;2022-12-24T21:59:43;7.90;99.90
6520;DHT22;3293;51.690;5.982;2022-12-24T22:04:43;7.90;99.90
6520;DHT22;3293;51.690;5.982;2022-12-24T22:09:43;7.90;99.90
6520;DHT22;3293;51.690;5.982;2022-12-24T22:15:04;7.90;99.90
6520;DHT22;3293;51.690;5.982;2022-12-24T22:20:05;7.70;99.90
6520;DHT22;3293;51.690;5.982;2022-12-24T22:25:06;7.60;99.90
6520;DHT22;3293;51.690;5.982;2022-12-24T22:30:06;7.60;99.90
6520;DHT22;3293;51.690;5.982;2022-12-24T22:35:07;7.50;99.90
6520;DHT22;3293;51.690;5.982;2022-12-24T22:40:07;7.40;99.90
6520;DHT22;3293;51.690;5.982;2022-12-24T22:45:10;7.40;99.90
6520;DHT22;3293;51.690;5.982;2022-12-24T22:50:10;7.40;99.90
6520;DHT22;3293;51.690;5.982;2022-12-24T22:55:11;7.30;99.90
6520;DHT22;3293;51.690;5.982;2022-12-24T23:00:34;7.30;99.90
6520;DHT22;3293;51.690;5.982;2022-12-24T23:05:35;7.20;99.90
6520;DHT22;3293;51.690;5.982;2022-12-24T23:10:36;7.20;99.90
6520;DHT22;3293;51.690;5.982;2022-12-24T23:15:37;7.30;99.90
6520;DHT22;3293;51.690;5.982;2022-12-24T23:20:39;7.40;99.90
6520;DHT22;3293;51.690;5.982;2022-12-24T23:25:39;7.50;99.90
6520;DHT22;3293;51.690;5.982;2022-12-24T23:30:39;7.50;99.90
6520;DHT22;3293;51.690;5.982;2022-12-24T23:35:39;7.60;99.90
6520;DHT22;3293;51.690;5.982;2022-12-24T23:40:40;7.60;99.90
6520;DHT22;3293;51.690;5.982;2022-12-24T23:45:48;7.80;99.90
6520;DHT22;3293;51.690;5.982;2022-12-24T23:50:49;7.80;99.90
6520;DHT22;3293;51.690;5.982;2022-12-24T23:55:50;7.90;99.90
